PGRO/ROP METAR and TAF weather

Enter ICAO airport designator
Station Type Date Time Source
PGRO METAR 2019/02/17 09:50 UTC NOAA

PGRO 170950Z 08012KT 7SM FEW014 25/20 A2997 RMK WIND DATA ESTIMATED LAST


Station Type Date Time Source
PGRO Decoded METAR 2019/02/17 09:50 UTC NOAA

Rota Island, N. Mariana Is, Rota International Airport, GU, United States (PGRO) 14-11N 145-15E
Feb 17, 2019 - 04:50 AM EST / 2019.02.17 0950 UTC
Wind: from the E (080 degrees) at 14 MPH (12 KT):0
Visibility: 7 mile(s):0
Sky conditions: mostly clear
Temperature: 77 F (25 C)
Dew Point: 68 F (20 C)
Relative Humidity: 73%
Pressure (altimeter): 29.97 in. Hg (1014 hPa)
ob: PGRO 170950Z 08012KT 7SM FEW014 25/20 A2997 RMK WIND DATA ESTIMATED LAST
cycle: 10

Station Type Date Time Source
PGRO TAF 2019/02/17 06:57 UTC NOAA

TAF PGRO 170555Z 1706/1806 06011G18KT P6SM FEW025 SCT060
FM170800 06010KT P6SM FEW025 SCT060


Example: see airport list